createdAt,value
2022-10-10T12:32:46.810Z,66.70
2022-10-10T12:35:32.977Z,67.40
2022-10-10T12:38:12.585Z,65.20
2022-10-10T12:41:07.540Z,64.90
2022-10-10T12:43:43.479Z,65.50
2022-10-10T12:46:28.747Z,65.60
2022-10-10T12:49:26.617Z,65.10
2022-10-10T12:52:21.701Z,64.60
2022-10-10T12:54:52.158Z,64.10
2022-10-10T12:57:33.391Z,65.90
2022-10-10T13:00:16.424Z,65.00
2022-10-10T13:03:21.246Z,64.10
2022-10-10T13:05:50.339Z,64.70
2022-10-10T13:08:22.616Z,65.40
2022-10-10T13:11:04.160Z,63.10
2022-10-10T13:13:31.915Z,65.50
2022-10-10T13:16:16.206Z,64.40
2022-10-10T13:18:51.078Z,65.00
2022-10-10T13:21:21.764Z,65.20
2022-10-10T13:26:45.581Z,66.50
2022-10-10T13:29:18.930Z,66.40
2022-10-10T13:31:46.447Z,67.80
2022-10-10T13:34:23.426Z,67.90
2022-10-10T13:36:58.897Z,68.70
2022-10-10T13:39:27.437Z,69.20
2022-10-10T13:41:55.982Z,70.30
2022-10-10T13:44:30.410Z,71.20
2022-10-10T13:46:57.963Z,71.60
2022-10-10T13:49:29.480Z,72.10
2022-10-10T13:52:05.644Z,71.90
2022-10-10T13:54:37.290Z,70.80
2022-10-10T13:57:10.294Z,70.90
2022-10-10T13:59:38.084Z,71.40
2022-10-10T14:02:21.501Z,71.20
2022-10-10T14:04:52.687Z,71.40
2022-10-10T14:07:30.517Z,71.50
2022-10-10T14:10:09.823Z,71.80
2022-10-10T14:12:48.722Z,71.40
2022-10-10T14:15:41.030Z,71.40
2022-10-10T14:18:21.175Z,71.40
2022-10-10T14:20:49.312Z,70.80
2022-10-10T14:23:17.691Z,71.30
2022-10-10T14:25:47.106Z,71.50
2022-10-10T14:28:34.607Z,72.00
2022-10-10T14:31:03.130Z,71.40
2022-10-10T14:33:30.936Z,71.60
2022-10-10T14:35:59.915Z,71.30
2022-10-10T14:38:27.459Z,70.80
2022-10-10T14:40:55.426Z,71.40
2022-10-10T14:43:23.635Z,72.30
2022-10-10T14:45:54.841Z,72.50
2022-10-10T14:48:22.518Z,72.10
2022-10-10T14:50:51.238Z,72.40
2022-10-10T14:53:18.882Z,71.90
2022-10-10T14:55:46.603Z,71.80
2022-10-10T14:58:19.584Z,73.50
2022-10-10T15:00:47.594Z,73.00
2022-10-10T15:03:15.052Z,73.50
2022-10-10T15:05:42.570Z,73.20
2022-10-10T15:08:14.207Z,72.70
2022-10-10T15:10:42.610Z,72.70
2022-10-10T15:13:13.577Z,73.30
2022-10-10T15:15:41.533Z,73.20
2022-10-10T15:18:26.704Z,73.40
2022-10-10T15:20:56.586Z,74.30
2022-10-10T15:23:24.006Z,74.70
2022-10-10T15:25:51.429Z,74.60
2022-10-10T15:28:18.818Z,75.40
2022-10-10T15:30:46.838Z,76.50
2022-10-10T15:33:14.235Z,76.10
2022-10-10T15:36:07.578Z,76.00
2022-10-10T15:38:29.850Z,75.50
2022-10-10T15:40:58.738Z,75.80
2022-10-10T15:43:27.910Z,76.50
2022-10-10T15:46:01.525Z,77.10
2022-10-10T15:48:28.830Z,77.10
2022-10-10T15:50:56.691Z,77.70
2022-10-10T15:53:24.018Z,77.60
2022-10-10T15:55:51.291Z,77.90
2022-10-10T15:58:18.606Z,79.20
2022-10-10T16:00:46.286Z,79.60
2022-10-10T16:03:13.723Z,79.20
2022-10-10T16:05:42.308Z,79.00
2022-10-10T16:08:13.440Z,78.90
2022-10-10T16:10:42.956Z,79.50
2022-10-10T16:13:10.935Z,79.50
2022-10-10T16:15:38.416Z,80.50
2022-10-10T16:18:05.744Z,79.70
2022-10-10T16:20:33.059Z,79.20
2022-10-10T16:23:00.453Z,79.60
2022-10-10T16:25:27.751Z,80.20
2022-10-10T16:27:55.155Z,80.50
2022-10-10T16:30:22.616Z,81.20
2022-10-10T16:32:50.024Z,82.10
2022-10-10T16:35:17.498Z,82.80
2022-10-10T16:37:44.858Z,82.50
2022-10-10T16:40:12.414Z,82.30
2022-10-10T16:42:39.752Z,83.20
2022-10-10T16:45:07.718Z,83.20
2022-10-10T16:47:35.445Z,82.70
2022-10-10T16:50:04.557Z,82.30
2022-10-10T16:52:37.619Z,82.70
2022-10-10T16:55:09.285Z,83.50
2022-10-10T16:57:36.936Z,83.30
2022-10-10T17:00:06.788Z,84.10
2022-10-10T17:02:34.489Z,85.00
2022-10-10T17:05:04.952Z,86.30
2022-10-10T17:07:32.275Z,86.40
2022-10-10T17:09:59.588Z,87.40
2022-10-10T17:12:26.916Z,88.20
2022-10-10T17:14:54.277Z,88.60
2022-10-10T17:17:22.609Z,89.60
2022-10-10T17:19:49.953Z,89.60
2022-10-10T17:22:17.507Z,89.80
2022-10-10T17:24:45.034Z,89.90
2022-10-10T17:27:12.526Z,90.30
2022-10-10T17:29:39.870Z,90.10
2022-10-10T17:32:07.228Z,90.00
2022-10-10T17:34:35.126Z,90.20
2022-10-10T17:37:02.774Z,90.00
2022-10-10T17:39:30.118Z,90.40
2022-10-10T17:41:57.438Z,90.40
2022-10-10T17:44:26.037Z,90.50
2022-10-10T17:46:53.884Z,91.10
2022-10-10T17:49:21.355Z,92.10
2022-10-10T17:51:48.716Z,92.40
2022-10-10T17:54:16.125Z,92.60
2022-10-10T17:56:44.703Z,92.90
2022-10-10T17:59:12.358Z,92.90
2022-10-10T18:01:39.986Z,92.90
2022-10-10T18:04:07.995Z,93.40
2022-10-10T18:06:36.921Z,93.50
2022-10-10T18:09:04.333Z,93.50
2022-10-10T18:11:32.042Z,93.50
2022-10-10T18:14:02.347Z,93.60
2022-10-10T18:16:33.940Z,94.00
2022-10-10T18:19:01.623Z,94.20
2022-10-10T18:21:29.159Z,94.40
2022-10-10T18:23:56.718Z,94.60
2022-10-10T18:26:27.146Z,95.30
2022-10-10T18:28:55.899Z,95.20
2022-10-10T18:31:27.550Z,95.70
2022-10-10T18:33:55.358Z,95.70
2022-10-10T18:36:28.283Z,95.70
2022-10-10T18:38:59.431Z,96.00
2022-10-10T18:41:32.790Z,96.50
2022-10-10T18:44:01.878Z,96.60
2022-10-10T18:46:29.313Z,97.00
2022-10-10T18:48:56.641Z,97.80
2022-10-10T18:51:26.195Z,98.00
2022-10-10T18:54:02.177Z,98.40
2022-10-10T18:56:31.987Z,98.40
2022-10-10T18:59:01.997Z,98.70
2022-10-10T19:01:34.364Z,99.00
2022-10-10T19:04:05.811Z,99.00
2022-10-10T19:06:34.194Z,99.50
2022-10-10T19:09:03.709Z,99.90
2022-10-10T19:11:33.807Z,99.90
2022-10-10T19:14:03.974Z,99.90
2022-10-10T19:16:31.596Z,99.90
2022-10-10T19:19:00.771Z,99.90
2022-10-10T19:21:30.324Z,99.90
2022-10-10T19:23:59.954Z,99.90
2022-10-10T19:26:33.280Z,99.90
2022-10-10T19:29:06.378Z,99.90
2022-10-10T19:31:35.513Z,99.90
2022-10-10T19:34:03.001Z,99.90
2022-10-10T19:36:30.470Z,99.90
2022-10-10T19:39:00.085Z,99.90
2022-10-10T19:41:27.605Z,99.90
2022-10-10T19:43:57.430Z,99.90
2022-10-10T19:46:27.002Z,99.90
2022-10-10T19:48:57.956Z,99.90
2022-10-10T19:51:27.715Z,99.90
2022-10-10T19:53:55.931Z,99.90
2022-10-10T19:56:24.598Z,99.90
2022-10-10T19:58:53.867Z,99.90
2022-10-10T20:01:26.854Z,99.90
2022-10-10T20:03:56.977Z,99.90
2022-10-10T20:06:24.502Z,99.90
2022-10-10T20:08:51.990Z,99.90
2022-10-10T20:11:23.236Z,99.90
2022-10-10T20:13:55.188Z,99.90
2022-10-10T20:16:23.087Z,99.90
2022-10-10T20:18:50.357Z,99.90
2022-10-10T20:21:24.062Z,99.90
2022-10-10T20:23:51.829Z,99.90
2022-10-10T20:26:21.818Z,99.90
2022-10-10T20:28:51.160Z,99.90
2022-10-10T20:31:33.263Z,99.90
2022-10-10T20:34:01.970Z,99.90
2022-10-10T20:36:31.498Z,99.90
2022-10-10T20:39:01.357Z,99.90
2022-10-10T20:41:31.683Z,99.90
2022-10-10T20:44:01.590Z,99.90
2022-10-10T20:46:32.320Z,99.90
2022-10-10T20:49:02.009Z,99.90
2022-10-10T20:51:29.876Z,99.90
2022-10-10T20:54:00.696Z,99.90
2022-10-10T20:56:30.147Z,99.90
2022-10-10T20:58:57.880Z,99.90
2022-10-10T21:01:27.433Z,99.90
2022-10-10T21:03:55.467Z,99.90
2022-10-10T21:06:26.221Z,99.90
2022-10-10T21:08:54.128Z,99.90
2022-10-10T21:11:22.827Z,99.90
2022-10-10T21:13:55.839Z,99.90
2022-10-10T21:16:28.867Z,99.90
2022-10-10T21:18:59.242Z,99.90
2022-10-10T21:21:32.530Z,99.90
2022-10-10T21:24:00.911Z,99.90
2022-10-10T21:26:29.444Z,99.90
2022-10-10T21:28:57.691Z,99.90
2022-10-10T21:31:36.185Z,99.90
2022-10-10T21:34:05.804Z,99.90
2022-10-10T21:36:33.859Z,99.90
2022-10-10T21:39:02.165Z,99.90
2022-10-10T21:41:29.620Z,99.90
2022-10-10T21:43:58.870Z,99.90
2022-10-10T21:46:35.885Z,99.90
2022-10-10T21:49:07.887Z,99.90
2022-10-10T21:51:38.397Z,99.90
2022-10-10T21:54:06.493Z,99.90
2022-10-10T21:56:34.075Z,99.90
2022-10-10T21:59:01.869Z,99.90
2022-10-10T22:01:33.244Z,99.90
2022-10-10T22:04:02.085Z,99.90
2022-10-10T22:06:29.832Z,99.90
2022-10-10T22:08:58.819Z,99.90
2022-10-10T22:11:27.794Z,99.90
2022-10-10T22:13:55.207Z,99.90
2022-10-10T22:16:22.688Z,99.90
2022-10-10T22:18:55.600Z,99.90
2022-10-10T22:21:30.048Z,99.90
2022-10-10T22:24:04.792Z,99.90
2022-10-10T22:26:33.732Z,99.90
2022-10-10T22:29:01.205Z,99.90
2022-10-10T22:31:29.299Z,99.90
2022-10-10T22:33:57.050Z,99.90
2022-10-10T22:36:24.507Z,99.90
2022-10-10T22:38:51.790Z,99.90
2022-10-10T22:41:19.087Z,99.90
2022-10-10T22:43:46.599Z,99.90
2022-10-10T22:46:13.927Z,99.90
2022-10-10T22:48:41.317Z,99.90
2022-10-10T22:51:15.125Z,99.90
2022-10-10T22:53:44.318Z,99.90
2022-10-10T22:56:15.305Z,99.90
2022-10-10T22:58:43.445Z,99.90
2022-10-10T23:01:18.042Z,99.90
2022-10-10T23:03:46.371Z,99.90
2022-10-10T23:06:14.088Z,99.90
2022-10-10T23:08:41.579Z,99.90
2022-10-10T23:11:08.901Z,99.90
2022-10-10T23:13:36.235Z,99.90
2022-10-10T23:16:04.358Z,99.90
2022-10-10T23:18:32.419Z,99.90
2022-10-10T23:21:00.126Z,99.90
2022-10-10T23:23:27.475Z,99.90
2022-10-10T23:25:55.172Z,99.90
2022-10-10T23:28:23.502Z,99.90
2022-10-10T23:30:50.915Z,99.90
2022-10-10T23:33:18.330Z,99.90
2022-10-10T23:35:57.341Z,99.90
2022-10-10T23:38:24.825Z,99.90
2022-10-10T23:40:52.202Z,99.90
2022-10-10T23:43:19.548Z,99.90
2022-10-10T23:45:47.887Z,99.90
2022-10-10T23:48:16.123Z,99.90
2022-10-10T23:50:44.095Z,99.90
2022-10-10T23:53:12.264Z,99.90
2022-10-10T23:55:39.967Z,99.90
2022-10-10T23:58:07.694Z,99.90
